GEC8109 EDDF-EGCC
Flight info
| Callsign | GEC8109 |
|---|---|
| Flight time | N/A |
| Altitude | 34000 |
| Route | OBOKA2E OBOKA Z29 TORNU DCT GALSO Q63 ERING L179 LAM UN57 WELIN T420 ELVOS |
| Aircraft | MD11/H-SDE1E2E3FGHIJ2J3J4J5M1RWXY/LB1D1 |
Departure
| Time | 2026-04-18 03:49 |
|---|---|
| Airport | Frankfurt Main Airport (EDDF) |
Arrival
| Time | N/A |
|---|---|
| Airport | Manchester Airport (EGCC) |
| Time | Latitude | Longitude | Altitude | Speed | Heading |
|---|---|---|---|---|---|
| 2026-04-18 03:37 | 50.04002 | 8.54542 | 356 ft | 0 kts | 249° |
| 2026-04-18 03:41 | 50.04007 | 8.54561 | 365 ft | 4 kts | 250° |
| 2026-04-18 03:41 | 50.04013 | 8.54588 | 362 ft | 4 kts | 249° |
| 2026-04-18 03:41 | 50.04028 | 8.54635 | 365 ft | 4 kts | 225° |
| 2026-04-18 03:41 | 50.04037 | 8.54649 | 365 ft | 4 kts | 192° |
| 2026-04-18 03:42 | 50.04043 | 8.54653 | 363 ft | 0 kts | 160° |
| 2026-04-18 03:43 | 50.04040 | 8.54654 | 363 ft | 4 kts | 160° |
| 2026-04-18 03:43 | 50.03969 | 8.54680 | 362 ft | 12 kts | 187° |
| 2026-04-18 03:44 | 50.03915 | 8.54577 | 363 ft | 16 kts | 246° |
| 2026-04-18 03:44 | 50.03862 | 8.54382 | 363 ft | 23 kts | 240° |
| 2026-04-18 03:44 | 50.03780 | 8.54141 | 360 ft | 26 kts | 249° |
| 2026-04-18 03:44 | 50.03719 | 8.53885 | 358 ft | 25 kts | 250° |
| 2026-04-18 03:45 | 50.03661 | 8.53638 | 354 ft | 24 kts | 250° |
| 2026-04-18 03:45 | 50.03601 | 8.53403 | 358 ft | 23 kts | 248° |
| 2026-04-18 03:45 | 50.03556 | 8.53219 | 349 ft | 12 kts | 250° |
| 2026-04-18 03:45 | 50.03531 | 8.53114 | 354 ft | 9 kts | 250° |
| 2026-04-18 03:46 | 50.03503 | 8.52992 | 354 ft | 15 kts | 250° |
| 2026-04-18 03:46 | 50.03441 | 8.52835 | 352 ft | 17 kts | 210° |
| 2026-04-18 03:46 | 50.03342 | 8.52823 | 349 ft | 8 kts | 175° |
| 2026-04-18 03:46 | 50.03317 | 8.52875 | 354 ft | 7 kts | 95° |
| 2026-04-18 03:47 | 50.03340 | 8.52988 | 349 ft | 15 kts | 70° |
| 2026-04-18 03:47 | 50.03383 | 8.53172 | 355 ft | 21 kts | 70° |
| 2026-04-18 03:47 | 50.03379 | 8.53292 | 350 ft | 11 kts | 122° |
| 2026-04-18 03:47 | 50.03323 | 8.53412 | 354 ft | 17 kts | 126° |
| 2026-04-18 03:48 | 50.03284 | 8.53534 | 352 ft | 8 kts | 83° |
| 2026-04-18 03:48 | 50.03297 | 8.53603 | 353 ft | 17 kts | 71° |
| 2026-04-18 03:48 | 50.03444 | 8.54224 | 358 ft | 107 kts | 69° |
| 2026-04-18 03:48 | 50.03796 | 8.55692 | 397 ft | 174 kts | 70° |
| 2026-04-18 03:49 | 50.04230 | 8.57472 | 1351 ft | 174 kts | 68° |
| 2026-04-18 03:49 | 50.04659 | 8.59197 | 2538 ft | 168 kts | 70° |
| 2026-04-18 03:49 | 50.05095 | 8.60930 | 3530 ft | 175 kts | 64° |
| 2026-04-18 03:49 | 50.05893 | 8.62560 | 3999 ft | 212 kts | 38° |
| 2026-04-18 03:50 | 50.07303 | 8.63326 | 4655 ft | 219 kts | 4° |
| 2026-04-18 03:50 | 50.08863 | 8.63372 | 5461 ft | 225 kts | 357° |
| 2026-04-18 03:50 | 50.10447 | 8.63303 | 6342 ft | 231 kts | 356° |
| 2026-04-18 03:50 | 50.12170 | 8.63203 | 6552 ft | 263 kts | 356° |
| 2026-04-18 03:51 | 50.14021 | 8.63089 | 6965 ft | 277 kts | 356° |
| 2026-04-18 03:51 | 50.15947 | 8.62969 | 7985 ft | 278 kts | 356° |
| 2026-04-18 03:51 | 50.17895 | 8.62846 | 9029 ft | 282 kts | 355° |
| 2026-04-18 03:51 | 50.19871 | 8.62718 | 10047 ft | 286 kts | 355° |
| 2026-04-18 03:52 | 50.21921 | 8.62581 | 10532 ft | 310 kts | 355° |
| 2026-04-18 03:52 | 50.24197 | 8.62423 | 10681 ft | 344 kts | 355° |
| 2026-04-18 03:52 | 50.26659 | 8.62246 | 11237 ft | 359 kts | 354° |
| 2026-04-18 03:52 | 50.29140 | 8.61712 | 12130 ft | 361 kts | 343° |
| 2026-04-18 03:53 | 50.31453 | 8.60225 | 13073 ft | 362 kts | 326° |
| 2026-04-18 03:53 | 50.32770 | 8.58629 | 13681 ft | 362 kts | 313° |